createdAt,value
2017-08-20T00:00:53.984Z,95.00
2017-08-20T00:03:22.312Z,95.00
2017-08-20T00:05:50.622Z,95.00
2017-08-20T00:08:18.906Z,95.30
2017-08-20T00:10:47.226Z,95.20
2017-08-20T00:13:15.521Z,95.00
2017-08-20T00:15:43.807Z,95.10
2017-08-20T00:18:12.134Z,95.10
2017-08-20T00:20:41.180Z,95.10
2017-08-20T00:23:09.486Z,95.00
2017-08-20T00:25:37.775Z,95.10
2017-08-20T00:28:06.097Z,95.10
2017-08-20T00:30:35.152Z,94.90
2017-08-20T00:33:03.474Z,94.90
2017-08-20T00:35:31.768Z,95.20
2017-08-20T00:38:00.054Z,95.20
2017-08-20T00:40:28.371Z,95.50
2017-08-20T00:42:57.428Z,95.50
2017-08-20T00:45:25.746Z,95.50
2017-08-20T00:47:54.031Z,95.90
2017-08-20T00:50:22.314Z,95.50
2017-08-20T00:52:50.638Z,95.50
2017-08-20T00:55:19.292Z,95.80
2017-08-20T00:57:47.594Z,95.40
2017-08-20T01:00:15.923Z,95.90
2017-08-20T01:02:44.213Z,95.60
2017-08-20T01:05:12.526Z,95.60
2017-08-20T01:07:40.814Z,95.50
2017-08-20T01:10:09.140Z,95.50
2017-08-20T01:12:37.423Z,95.50
2017-08-20T01:15:05.708Z,95.60
2017-08-20T01:17:34.026Z,95.60
2017-08-20T01:20:03.074Z,95.70
2017-08-20T01:22:31.358Z,95.70
2017-08-20T01:24:59.670Z,95.70
2017-08-20T01:27:27.991Z,95.70
2017-08-20T01:29:56.315Z,95.90
2017-08-20T01:32:24.603Z,95.90
2017-08-20T01:34:52.915Z,95.90
2017-08-20T01:37:21.199Z,96.00
2017-08-20T01:39:49.527Z,96.10
2017-08-20T01:42:17.827Z,96.20
2017-08-20T01:44:46.147Z,96.10
2017-08-20T01:47:15.335Z,96.30
2017-08-20T01:49:45.400Z,96.40
2017-08-20T01:52:13.703Z,96.40
2017-08-20T01:54:42.022Z,96.40
2017-08-20T01:57:10.307Z,96.40
2017-08-20T01:59:38.593Z,96.50
2017-08-20T02:02:06.915Z,96.40
2017-08-20T02:04:35.981Z,96.60
2017-08-20T02:07:04.303Z,96.60
2017-08-20T02:09:32.621Z,96.60
2017-08-20T02:12:00.958Z,96.60
2017-08-20T02:14:29.405Z,96.60
2017-08-20T02:16:57.737Z,96.80
2017-08-20T02:19:26.991Z,96.90
2017-08-20T02:21:56.067Z,96.90
2017-08-20T02:24:24.370Z,96.90
2017-08-20T02:26:52.686Z,97.00
2017-08-20T02:29:21.012Z,97.20
2017-08-20T02:31:49.304Z,97.40
2017-08-20T02:34:17.623Z,97.10
2017-08-20T02:36:45.916Z,97.00
2017-08-20T02:39:15.178Z,97.50
2017-08-20T02:41:43.462Z,97.30
2017-08-20T02:44:11.746Z,97.50
2017-08-20T02:46:40.062Z,97.20
2017-08-20T02:49:08.391Z,97.10
2017-08-20T02:51:37.455Z,96.80
2017-08-20T02:54:05.771Z,96.80
2017-08-20T02:56:34.063Z,96.90
2017-08-20T02:59:02.383Z,96.80
2017-08-20T03:01:31.445Z,96.80
2017-08-20T03:03:59.754Z,96.80
2017-08-20T03:06:28.057Z,96.60
2017-08-20T03:08:56.374Z,96.90
2017-08-20T03:11:24.683Z,96.80
2017-08-20T03:13:53.010Z,96.70
2017-08-20T03:16:21.303Z,96.70
2017-08-20T03:18:49.619Z,96.80
2017-08-20T03:21:17.914Z,96.70
2017-08-20T03:23:46.208Z,96.90
2017-08-20T03:26:14.531Z,97.00
2017-08-20T03:28:42.815Z,97.00
2017-08-20T03:31:11.139Z,97.10
2017-08-20T03:33:39.454Z,97.20
2017-08-20T03:36:07.775Z,97.30
2017-08-20T03:38:36.071Z,97.10
2017-08-20T03:41:04.388Z,97.20
2017-08-20T03:43:32.675Z,97.30
2017-08-20T03:46:01.087Z,97.40
2017-08-20T03:48:30.134Z,97.60
2017-08-20T03:50:58.457Z,97.30
2017-08-20T03:53:26.788Z,97.30
2017-08-20T03:55:55.895Z,97.50
2017-08-20T03:58:24.942Z,97.40
2017-08-20T04:00:53.234Z,97.40
2017-08-20T04:03:21.584Z,97.30
2017-08-20T04:05:50.659Z,97.50
2017-08-20T04:08:18.956Z,97.50
2017-08-20T04:10:47.284Z,97.40
2017-08-20T04:13:15.594Z,97.80
2017-08-20T04:15:43.924Z,97.90
2017-08-20T04:18:12.302Z,97.80
2017-08-20T04:20:40.614Z,97.90
2017-08-20T04:23:09.662Z,97.90
2017-08-20T04:25:37.989Z,97.90
2017-08-20T04:28:06.306Z,97.70
2017-08-20T04:30:35.412Z,97.60
2017-08-20T04:33:04.496Z,97.60
2017-08-20T04:35:32.818Z,97.60
2017-08-20T04:38:01.867Z,97.70
2017-08-20T04:40:30.150Z,97.70
2017-08-20T04:42:58.470Z,97.50
2017-08-20T04:45:26.790Z,97.70
2017-08-20T04:47:55.852Z,97.40
2017-08-20T04:50:24.171Z,97.40
2017-08-20T04:52:52.455Z,97.40
2017-08-20T04:55:20.770Z,97.50
2017-08-20T04:57:49.867Z,97.40
2017-08-20T05:00:18.153Z,97.40
2017-08-20T05:02:46.466Z,97.30
2017-08-20T05:05:14.746Z,97.20
2017-08-20T05:07:43.068Z,97.00
2017-08-20T05:10:11.364Z,97.00
2017-08-20T05:12:39.687Z,96.80
2017-08-20T05:15:07.975Z,96.80
2017-08-20T05:17:36.303Z,96.80
2017-08-20T05:20:04.595Z,96.50
2017-08-20T05:22:32.885Z,96.60
2017-08-20T05:25:01.204Z,96.80
2017-08-20T05:27:29.483Z,96.50
2017-08-20T05:29:57.763Z,96.30
2017-08-20T05:32:26.108Z,96.00
2017-08-20T05:34:54.419Z,95.90
2017-08-20T05:37:23.596Z,96.30
2017-08-20T05:39:51.896Z,96.30
2017-08-20T05:42:20.214Z,96.50
2017-08-20T05:44:48.494Z,96.60
2017-08-20T05:47:17.575Z,96.50
2017-08-20T05:49:45.887Z,96.50
2017-08-20T05:52:14.934Z,96.70
2017-08-20T05:54:43.355Z,96.70
2017-08-20T05:57:11.638Z,96.60
2017-08-20T05:59:39.928Z,96.50
2017-08-20T06:02:08.243Z,96.40
2017-08-20T06:04:36.528Z,96.10
2017-08-20T06:07:04.851Z,96.10
2017-08-20T06:09:33.168Z,96.10
2017-08-20T06:12:01.455Z,95.90
2017-08-20T06:14:29.766Z,95.90
2017-08-20T06:16:58.082Z,95.90
2017-08-20T06:19:27.167Z,95.90
2017-08-20T06:21:55.446Z,95.90
2017-08-20T06:24:23.774Z,95.80
2017-08-20T06:26:52.054Z,95.80
2017-08-20T06:29:20.364Z,95.80
2017-08-20T06:31:49.424Z,95.90
2017-08-20T06:34:17.726Z,95.90
2017-08-20T06:36:46.063Z,96.20
2017-08-20T06:39:14.346Z,96.20
2017-08-20T06:41:42.636Z,96.10
2017-08-20T06:44:10.950Z,96.20
2017-08-20T06:46:39.234Z,96.50
2017-08-20T06:49:07.554Z,96.20
2017-08-20T06:51:35.848Z,95.70
2017-08-20T06:54:04.179Z,95.70
2017-08-20T06:56:32.535Z,95.20
2017-08-20T06:59:00.872Z,94.80
2017-08-20T07:01:29.174Z,94.70
2017-08-20T07:03:57.507Z,94.20
2017-08-20T07:06:26.624Z,93.90
2017-08-20T07:08:55.687Z,93.60
2017-08-20T07:11:23.979Z,93.60
2017-08-20T07:13:52.311Z,94.40
2017-08-20T07:16:21.376Z,92.00
2017-08-20T07:18:49.707Z,91.90
2017-08-20T07:21:18.774Z,91.30
2017-08-20T07:23:47.112Z,91.20
2017-08-20T07:26:16.171Z,90.90
2017-08-20T07:28:44.491Z,90.90
2017-08-20T07:31:12.806Z,90.20
2017-08-20T07:33:41.166Z,90.80
2017-08-20T07:38:42.859Z,90.90
2017-08-20T07:41:11.142Z,90.90
2017-08-20T07:43:39.459Z,88.70
2017-08-20T07:46:08.506Z,87.80
2017-08-20T07:48:36.849Z,87.80
2017-08-20T07:51:05.244Z,87.10
2017-08-20T07:53:33.624Z,88.50
2017-08-20T07:56:01.955Z,89.30
2017-08-20T07:58:30.307Z,88.30
2017-08-20T08:00:58.623Z,86.40
2017-08-20T08:03:27.680Z,86.70
2017-08-20T08:05:56.003Z,86.80
2017-08-20T08:08:24.291Z,82.60
2017-08-20T08:10:53.378Z,80.60
2017-08-20T08:13:21.698Z,81.00
2017-08-20T08:15:50.787Z,84.80
2017-08-20T08:18:19.098Z,84.80
2017-08-20T08:20:48.184Z,80.50
2017-08-20T08:23:16.508Z,80.50
2017-08-20T08:25:44.818Z,82.80
2017-08-20T08:28:13.110Z,79.20
2017-08-20T08:30:41.459Z,77.70
2017-08-20T08:33:10.515Z,78.00
2017-08-20T08:35:38.796Z,78.00
2017-08-20T08:38:07.319Z,74.80
2017-08-20T08:40:35.775Z,74.20
2017-08-20T08:43:04.123Z,74.70
2017-08-20T08:45:32.418Z,74.70
2017-08-20T08:48:00.715Z,73.40
2017-08-20T08:50:29.802Z,74.70
2017-08-20T08:52:58.094Z,74.70
2017-08-20T08:55:26.428Z,70.80
2017-08-20T08:57:54.715Z,70.10
2017-08-20T09:00:23.987Z,71.00
2017-08-20T09:02:52.313Z,71.40
2017-08-20T09:05:20.652Z,73.20
2017-08-20T09:07:48.986Z,67.90
2017-08-20T09:10:17.356Z,69.00
2017-08-20T09:12:46.476Z,65.50
2017-08-20T09:15:14.823Z,65.40
2017-08-20T09:17:43.153Z,65.40
2017-08-20T09:20:12.264Z,67.10
2017-08-20T09:22:40.608Z,67.10
2017-08-20T09:25:08.976Z,61.30
2017-08-20T09:27:37.325Z,62.40
2017-08-20T09:30:06.403Z,64.20
2017-08-20T09:32:34.820Z,64.10
2017-08-20T09:35:03.935Z,62.80
2017-08-20T09:37:33.020Z,65.00
2017-08-20T09:40:01.353Z,65.00
2017-08-20T09:42:29.691Z,65.80
2017-08-20T09:44:57.999Z,65.10
2017-08-20T09:47:27.080Z,68.70
2017-08-20T09:49:55.891Z,68.10
2017-08-20T09:52:24.207Z,67.10
2017-08-20T09:54:53.316Z,67.30
2017-08-20T09:57:22.421Z,63.80
2017-08-20T09:59:51.523Z,63.60
2017-08-20T10:02:20.670Z,64.40
2017-08-20T10:04:49.018Z,64.30
2017-08-20T10:07:17.368Z,66.20
2017-08-20T10:09:45.717Z,65.80
2017-08-20T10:12:14.052Z,67.50
2017-08-20T10:14:42.376Z,71.60
2017-08-20T10:17:10.715Z,70.80
2017-08-20T10:19:39.029Z,72.50
2017-08-20T10:22:07.388Z,70.60
2017-08-20T10:24:35.699Z,71.80
2017-08-20T10:27:04.041Z,69.10
2017-08-20T10:29:33.224Z,66.50
2017-08-20T10:32:01.530Z,66.40
2017-08-20T10:34:29.924Z,66.50
2017-08-20T10:36:59.127Z,68.40
2017-08-20T10:39:27.479Z,67.70
2017-08-20T10:41:55.821Z,71.10
2017-08-20T10:44:24.878Z,68.80
2017-08-20T10:46:53.317Z,67.90
2017-08-20T10:49:21.614Z,69.10
2017-08-20T10:51:50.699Z,69.30
2017-08-20T10:54:19.044Z,69.20
2017-08-20T10:56:47.359Z,71.90
2017-08-20T10:59:15.703Z,68.20
2017-08-20T11:01:44.054Z,68.40
2017-08-20T11:04:12.376Z,68.60
2017-08-20T11:06:41.484Z,71.10
2017-08-20T11:09:10.565Z,70.70
2017-08-20T11:11:38.930Z,70.60
2017-08-20T11:14:07.219Z,67.80
2017-08-20T11:16:35.538Z,69.50
2017-08-20T11:19:03.948Z,66.30
2017-08-20T11:21:33.002Z,65.90
2017-08-20T11:24:01.569Z,65.90
2017-08-20T11:26:29.941Z,69.40
2017-08-20T11:28:59.008Z,68.30
2017-08-20T11:31:27.339Z,68.30
2017-08-20T11:33:56.444Z,68.10
2017-08-20T11:36:25.643Z,64.60
2017-08-20T11:38:53.968Z,64.40
2017-08-20T11:41:22.326Z,63.50
2017-08-20T11:43:51.455Z,64.90
2017-08-20T11:46:20.529Z,62.50
2017-08-20T11:48:48.844Z,62.50
2017-08-20T11:51:17.927Z,62.80
2017-08-20T11:53:46.247Z,63.00
2017-08-20T11:56:15.424Z,64.40
2017-08-20T11:58:43.706Z,64.50
2017-08-20T12:01:12.023Z,62.80
2017-08-20T12:03:41.107Z,66.00
2017-08-20T12:06:09.397Z,66.00
2017-08-20T12:08:37.711Z,66.30
2017-08-20T12:11:06.025Z,66.60
2017-08-20T12:13:34.321Z,66.80
2017-08-20T12:16:02.648Z,65.40
2017-08-20T12:18:30.974Z,66.40
2017-08-20T12:20:59.260Z,66.10
2017-08-20T12:23:27.644Z,67.90
2017-08-20T12:25:55.933Z,69.20
2017-08-20T12:28:24.320Z,67.20
2017-08-20T12:30:52.638Z,67.80
2017-08-20T12:33:21.728Z,70.70
2017-08-20T12:35:50.132Z,70.70
2017-08-20T12:38:19.220Z,69.70
2017-08-20T12:40:47.542Z,69.60
2017-08-20T12:43:15.848Z,69.30
2017-08-20T12:45:44.152Z,69.00
2017-08-20T12:48:12.466Z,66.90
2017-08-20T12:50:40.787Z,66.90
2017-08-20T12:53:09.878Z,69.20
2017-08-20T12:55:38.979Z,69.20
2017-08-20T12:58:07.292Z,68.90
2017-08-20T13:00:36.476Z,66.80
2017-08-20T13:03:05.245Z,66.10
2017-08-20T13:05:33.672Z,64.60
2017-08-20T13:08:02.070Z,68.50
2017-08-20T13:10:30.564Z,61.30
2017-08-20T13:12:58.962Z,61.70
2017-08-20T13:15:27.345Z,62.60
2017-08-20T13:17:55.720Z,61.50
2017-08-20T13:20:24.027Z,64.90
2017-08-20T13:22:53.152Z,61.70
2017-08-20T13:25:22.355Z,61.10
2017-08-20T13:27:50.734Z,61.10
2017-08-20T13:30:19.040Z,60.50
2017-08-20T13:32:48.086Z,56.10
2017-08-20T13:35:16.380Z,56.10
2017-08-20T13:37:45.581Z,59.40
2017-08-20T13:40:13.926Z,61.80
2017-08-20T13:42:42.293Z,65.40
2017-08-20T13:45:10.562Z,62.50
2017-08-20T13:47:38.851Z,62.40
2017-08-20T13:50:07.193Z,65.80
2017-08-20T13:52:36.284Z,65.90
2017-08-20T13:55:04.558Z,66.40
2017-08-20T13:57:32.875Z,66.80
2017-08-20T14:00:01.969Z,68.00
2017-08-20T14:02:30.294Z,67.90
2017-08-20T14:04:58.603Z,69.30
2017-08-20T14:07:26.935Z,65.90
2017-08-20T14:09:55.326Z,66.60
2017-08-20T14:12:23.639Z,65.60
2017-08-20T14:14:52.745Z,65.50
2017-08-20T14:17:21.824Z,66.20
2017-08-20T14:19:50.211Z,66.20
2017-08-20T14:22:18.510Z,65.00
2017-08-20T14:24:46.836Z,64.80
2017-08-20T14:27:15.907Z,65.10
2017-08-20T14:29:44.304Z,65.00
2017-08-20T14:32:12.601Z,63.90
2017-08-20T14:34:40.896Z,65.50
2017-08-20T14:37:09.982Z,65.90
2017-08-20T14:39:38.277Z,65.30
2017-08-20T14:42:06.660Z,67.80
2017-08-20T14:44:34.940Z,70.10
2017-08-20T14:47:03.273Z,68.80
2017-08-20T14:49:32.347Z,68.00
2017-08-20T14:52:00.739Z,68.00
2017-08-20T14:54:29.075Z,69.30
2017-08-20T14:56:57.351Z,65.30
2017-08-20T14:59:26.541Z,65.60
2017-08-20T15:01:54.846Z,65.50
2017-08-20T15:04:24.227Z,63.40
2017-08-20T15:06:52.494Z,63.50
2017-08-20T15:09:20.811Z,55.40
2017-08-20T15:11:49.106Z,55.30
2017-08-20T15:14:17.409Z,55.90
2017-08-20T15:16:45.724Z,55.60
2017-08-20T15:19:14.076Z,53.30
2017-08-20T15:21:42.364Z,52.30
2017-08-20T15:24:10.659Z,52.50
2017-08-20T15:26:38.971Z,53.40
2017-08-20T15:29:08.032Z,54.20
2017-08-20T15:31:36.338Z,54.10
2017-08-20T15:34:04.628Z,54.70
2017-08-20T15:36:33.024Z,54.70
2017-08-20T15:39:01.407Z,56.40
2017-08-20T15:41:29.700Z,53.30
2017-08-20T15:43:58.006Z,51.10
2017-08-20T15:46:27.197Z,46.90
2017-08-20T15:48:55.510Z,46.80
2017-08-20T15:51:24.584Z,47.70
2017-08-20T15:53:52.870Z,47.70
2017-08-20T15:56:22.207Z,48.50
2017-08-20T15:58:50.503Z,46.40
2017-08-20T16:01:18.889Z,47.20
2017-08-20T16:03:47.192Z,48.20
2017-08-20T16:06:16.277Z,46.70
2017-08-20T16:08:44.789Z,46.50
2017-08-20T16:11:13.886Z,46.30
2017-08-20T16:13:42.211Z,46.30
2017-08-20T16:16:10.512Z,46.90
2017-08-20T16:18:38.824Z,46.60
2017-08-20T16:21:07.109Z,46.60
2017-08-20T16:23:35.472Z,48.20
2017-08-20T16:26:03.820Z,49.80
2017-08-20T16:28:32.108Z,53.40
2017-08-20T16:31:00.424Z,55.40
2017-08-20T16:33:29.620Z,53.70
2017-08-20T16:35:58.718Z,55.20
2017-08-20T16:38:27.124Z,54.60
2017-08-20T16:40:56.181Z,56.00
2017-08-20T16:43:24.454Z,56.10
2017-08-20T16:45:52.785Z,52.60
2017-08-20T16:48:21.067Z,49.00
2017-08-20T16:50:49.408Z,48.90
2017-08-20T16:53:17.709Z,47.20
2017-08-20T16:55:46.002Z,43.60
2017-08-20T16:58:14.321Z,44.70
2017-08-20T17:00:42.605Z,47.10
2017-08-20T17:03:10.952Z,49.20
2017-08-20T17:05:40.038Z,54.40
2017-08-20T17:08:08.352Z,54.40
2017-08-20T17:10:36.856Z,55.50
2017-08-20T17:13:05.520Z,57.00
2017-08-20T17:15:33.890Z,58.50
2017-08-20T17:18:02.176Z,58.80
2017-08-20T17:20:30.464Z,61.30
2017-08-20T17:22:58.804Z,65.20
2017-08-20T17:25:27.088Z,66.90
2017-08-20T17:27:55.376Z,70.30
2017-08-20T17:30:23.693Z,72.30
2017-08-20T17:32:52.014Z,75.80
2017-08-20T17:35:20.295Z,76.50
2017-08-20T17:37:48.625Z,77.00
2017-08-20T17:40:17.721Z,79.40
2017-08-20T17:42:45.998Z,79.20
2017-08-20T17:45:14.379Z,79.50
2017-08-20T17:47:42.701Z,80.70
2017-08-20T17:50:11.752Z,83.60
2017-08-20T17:52:40.076Z,83.50
2017-08-20T17:55:08.356Z,84.30
2017-08-20T17:57:36.651Z,85.70
2017-08-20T18:00:05.044Z,85.10
2017-08-20T18:02:33.332Z,86.00
2017-08-20T18:05:01.653Z,83.00
2017-08-20T18:07:30.708Z,82.10
2017-08-20T18:09:59.109Z,82.10
2017-08-20T18:12:27.430Z,82.40
2017-08-20T18:14:56.511Z,84.70
2017-08-20T18:17:24.803Z,84.00
2017-08-20T18:19:53.131Z,86.10
2017-08-20T18:22:22.305Z,90.20
2017-08-20T18:24:50.587Z,90.20
2017-08-20T18:27:18.905Z,91.00
2017-08-20T18:29:47.956Z,94.00
2017-08-20T18:32:16.272Z,93.80
2017-08-20T18:34:44.562Z,94.30
2017-08-20T18:37:12.851Z,95.20
2017-08-20T18:39:41.544Z,95.20
2017-08-20T18:42:09.820Z,95.80
2017-08-20T18:44:38.136Z,96.20
2017-08-20T18:47:06.466Z,96.10
2017-08-20T18:49:34.742Z,96.40
2017-08-20T18:52:03.808Z,96.60
2017-08-20T18:54:32.310Z,96.60
2017-08-20T18:57:00.748Z,97.00
2017-08-20T18:59:29.099Z,96.90
2017-08-20T19:01:57.515Z,96.70
2017-08-20T19:04:26.568Z,97.20
2017-08-20T19:06:54.977Z,96.90
2017-08-20T19:09:23.469Z,97.20
2017-08-20T19:11:51.760Z,97.00
2017-08-20T19:14:20.173Z,97.50
2017-08-20T19:16:48.827Z,97.60
2017-08-20T19:19:17.116Z,97.80
2017-08-20T19:21:46.357Z,97.40
2017-08-20T19:24:14.731Z,97.40
2017-08-20T19:26:43.069Z,97.40
2017-08-20T19:29:12.192Z,97.70
2017-08-20T19:31:40.618Z,97.70
2017-08-20T19:34:09.048Z,97.80
2017-08-20T19:36:37.332Z,97.80
2017-08-20T19:39:05.707Z,98.10
2017-08-20T19:41:33.996Z,98.10
2017-08-20T19:44:02.302Z,98.10
2017-08-20T19:46:30.688Z,98.30
2017-08-20T19:48:58.972Z,98.50
2017-08-20T19:51:27.312Z,98.90
2017-08-20T19:53:55.660Z,98.80
2017-08-20T19:56:24.011Z,98.70
2017-08-20T19:58:52.321Z,98.90
2017-08-20T20:01:20.613Z,99.00
2017-08-20T20:03:48.930Z,99.40
2017-08-20T20:06:18.029Z,99.80
2017-08-20T20:08:46.350Z,99.40
2017-08-20T20:11:14.641Z,99.40
2017-08-20T20:13:42.992Z,99.30
2017-08-20T20:16:11.321Z,99.30
2017-08-20T20:18:39.657Z,99.20
2017-08-20T20:21:07.960Z,98.90
2017-08-20T20:23:36.296Z,99.00
2017-08-20T20:26:04.590Z,99.20
2017-08-20T20:28:33.018Z,99.40
2017-08-20T20:31:01.344Z,99.30
2017-08-20T20:33:30.405Z,99.60
2017-08-20T20:35:58.682Z,99.60
2017-08-20T20:38:26.992Z,99.50
2017-08-20T20:40:55.300Z,99.70
2017-08-20T20:43:23.615Z,99.80
2017-08-20T20:45:52.678Z,99.80
2017-08-20T20:48:20.992Z,99.80
2017-08-20T20:50:49.380Z,99.60
2017-08-20T20:53:17.667Z,99.40
2017-08-20T20:55:46.002Z,99.40
2017-08-20T20:58:15.174Z,99.10
2017-08-20T21:00:44.401Z,99.10
2017-08-20T21:03:13.489Z,99.00
2017-08-20T21:05:41.807Z,98.90
2017-08-20T21:08:10.166Z,98.80
2017-08-20T21:10:38.439Z,99.00
2017-08-20T21:13:06.759Z,98.60
2017-08-20T21:15:35.810Z,99.00
2017-08-20T21:18:04.132Z,99.00
2017-08-20T21:20:32.406Z,99.10
2017-08-20T21:23:00.724Z,98.90
2017-08-20T21:25:29.002Z,99.10
2017-08-20T21:27:57.297Z,99.10
2017-08-20T21:30:25.688Z,99.00
2017-08-20T21:32:54.071Z,99.10
2017-08-20T21:35:22.355Z,99.40
2017-08-20T21:37:50.650Z,99.10
2017-08-20T21:40:19.049Z,99.10
2017-08-20T21:42:47.366Z,99.10
2017-08-20T21:45:15.719Z,98.90
2017-08-20T21:47:44.007Z,98.90
2017-08-20T21:50:12.394Z,99.00
2017-08-20T21:52:40.701Z,98.80
2017-08-20T21:55:09.083Z,98.70
2017-08-20T21:57:37.416Z,98.80
2017-08-20T22:00:05.806Z,98.70
2017-08-20T22:02:34.859Z,98.90
2017-08-20T22:05:03.170Z,98.90
2017-08-20T22:07:31.509Z,98.80
2017-08-20T22:09:59.796Z,98.70
2017-08-20T22:12:29.165Z,98.80
2017-08-20T22:14:57.494Z,98.80
2017-08-20T22:17:25.841Z,98.60
2017-08-20T22:19:54.128Z,98.60
2017-08-20T22:22:22.460Z,98.60
2017-08-20T22:24:50.743Z,98.80
2017-08-20T22:27:19.117Z,98.70
2017-08-20T22:29:48.209Z,99.00
2017-08-20T22:32:16.496Z,99.00
2017-08-20T22:34:44.825Z,99.00
2017-08-20T22:37:13.102Z,98.90
2017-08-20T22:39:41.410Z,99.00
2017-08-20T22:42:09.734Z,99.10
2017-08-20T22:44:38.015Z,99.30
2017-08-20T22:47:06.336Z,99.20
2017-08-20T22:49:34.632Z,99.50
2017-08-20T22:52:03.692Z,99.70
2017-08-20T22:54:31.998Z,99.70
2017-08-20T22:57:00.297Z,99.70
2017-08-20T22:59:28.603Z,99.60
2017-08-20T23:01:57.703Z,99.00
2017-08-20T23:04:25.997Z,98.90
2017-08-20T23:06:54.313Z,98.70
2017-08-20T23:09:23.383Z,98.50
2017-08-20T23:11:51.672Z,98.50
2017-08-20T23:14:19.996Z,98.30
2017-08-20T23:16:49.099Z,98.80
2017-08-20T23:19:18.179Z,98.90
2017-08-20T23:21:46.500Z,98.80
2017-08-20T23:24:15.873Z,98.80
2017-08-20T23:26:44.145Z,99.10
2017-08-20T23:29:12.432Z,98.80
2017-08-20T23:31:40.860Z,98.80
2017-08-20T23:34:09.134Z,99.00
2017-08-20T23:36:37.438Z,99.00
2017-08-20T23:39:05.757Z,99.00
2017-08-20T23:41:34.105Z,98.90
2017-08-20T23:44:02.378Z,98.80
2017-08-20T23:46:30.704Z,98.80
2017-08-20T23:48:59.038Z,98.70
2017-08-20T23:51:27.310Z,98.70
2017-08-20T23:53:55.626Z,98.60
2017-08-20T23:56:23.965Z,98.40
2017-08-20T23:58:52.271Z,98.40
